createdAt,value
2022-10-29T00:01:22.038Z,0.28
2022-10-29T00:03:50.651Z,0.19
2022-10-29T00:06:17.807Z,0.29
2022-10-29T00:08:44.893Z,0.20
2022-10-29T00:11:14.478Z,0.15
2022-10-29T00:13:42.933Z,0.13
2022-10-29T00:16:11.721Z,0.12
2022-10-29T00:18:39.611Z,0.24
2022-10-29T00:21:11.574Z,0.17
2022-10-29T00:23:39.431Z,0.16
2022-10-29T00:26:07.782Z,0.50
2022-10-29T00:28:35.025Z,0.31
2022-10-29T00:31:07.224Z,0.21
2022-10-29T00:33:34.413Z,0.16
2022-10-29T00:36:03.897Z,0.13
2022-10-29T00:38:33.257Z,0.12
2022-10-29T00:41:00.433Z,0.22
2022-10-29T00:43:27.350Z,0.28
2022-10-29T00:46:01.268Z,0.29
2022-10-29T00:48:32.416Z,0.27
2022-10-29T00:51:04.659Z,0.19
2022-10-29T00:53:36.715Z,0.74
2022-10-29T00:56:06.725Z,0.49
2022-10-29T00:58:33.624Z,0.35
2022-10-29T01:01:01.212Z,0.23
2022-10-29T01:03:28.208Z,0.22
2022-10-29T01:05:55.807Z,0.36
2022-10-29T01:08:24.142Z,0.34
2022-10-29T01:11:01.736Z,0.27
2022-10-29T01:13:43.998Z,0.23
2022-10-29T01:16:21.142Z,0.21
2022-10-29T01:18:53.850Z,0.16
2022-10-29T01:21:48.386Z,0.68
2022-10-29T01:24:52.034Z,0.46
2022-10-29T01:27:49.043Z,0.34
2022-10-29T01:30:23.419Z,0.29
2022-10-29T01:33:01.906Z,0.88
2022-10-29T01:35:38.313Z,0.80
2022-10-29T01:38:14.587Z,0.72
2022-10-29T01:40:49.836Z,0.88
2022-10-29T01:43:23.439Z,0.56
2022-10-29T01:45:56.072Z,0.39
2022-10-29T01:48:33.352Z,0.26
2022-10-29T01:51:06.303Z,0.45
2022-10-29T01:53:36.261Z,0.33
2022-10-29T01:56:03.273Z,0.27
2022-10-29T01:58:31.940Z,0.24
2022-10-29T02:01:07.225Z,0.28
2022-10-29T02:03:47.480Z,0.36
2022-10-29T02:06:24.310Z,0.55
2022-10-29T02:09:01.853Z,0.39
2022-10-29T02:11:41.703Z,0.30
2022-10-29T02:14:16.372Z,0.60
2022-10-29T02:16:44.061Z,0.41
2022-10-29T02:19:13.719Z,0.38
2022-10-29T02:21:40.609Z,0.30
2022-10-29T02:24:08.946Z,0.26
2022-10-29T02:26:37.195Z,0.23
2022-10-29T02:29:04.198Z,0.36
2022-10-29T02:31:31.174Z,0.53
2022-10-29T02:33:57.964Z,0.43
2022-10-29T02:36:26.124Z,0.49
2022-10-29T02:38:53.149Z,0.72
2022-10-29T02:41:20.069Z,0.64
2022-10-29T02:43:46.795Z,0.48
2022-10-29T02:46:15.755Z,0.37
2022-10-29T02:48:43.015Z,0.42
2022-10-29T02:51:11.864Z,0.36
2022-10-29T02:53:40.283Z,0.33
2022-10-29T02:56:08.580Z,0.32
2022-10-29T02:58:38.797Z,0.26
2022-10-29T03:01:07.932Z,0.28
2022-10-29T03:03:36.289Z,0.37
2022-10-29T03:06:03.351Z,0.33
2022-10-29T03:08:30.131Z,0.32
2022-10-29T03:10:59.116Z,0.31
2022-10-29T03:13:26.048Z,0.30
2022-10-29T03:15:53.065Z,0.69
2022-10-29T03:18:19.945Z,0.82
2022-10-29T03:20:46.753Z,0.64
2022-10-29T03:23:13.892Z,0.44
2022-10-29T03:25:41.123Z,1.28
2022-10-29T03:28:10.856Z,0.86
2022-10-29T03:30:37.742Z,0.67
2022-10-29T03:33:04.528Z,0.47
2022-10-29T03:35:31.420Z,1.00
2022-10-29T03:37:58.652Z,0.72
2022-10-29T03:40:25.654Z,0.48
2022-10-29T03:42:53.803Z,0.62
2022-10-29T03:45:22.818Z,0.52
2022-10-29T03:47:50.365Z,0.48
2022-10-29T03:50:17.747Z,0.40
2022-10-29T03:52:44.599Z,0.45
2022-10-29T03:55:11.553Z,0.70
2022-10-29T03:57:38.298Z,0.89
2022-10-29T04:00:06.249Z,0.65
2022-10-29T04:02:34.818Z,0.53
2022-10-29T04:05:02.828Z,0.42
2022-10-29T04:07:29.703Z,0.51
2022-10-29T04:09:56.705Z,0.41
2022-10-29T04:12:23.627Z,0.36
2022-10-29T04:17:23.465Z,0.36
2022-10-29T04:19:51.765Z,7.10
2022-10-29T04:30:41.171Z,5.43
2022-10-29T04:33:08.122Z,3.40
2022-10-29T04:35:37.404Z,2.30
2022-10-29T04:38:08.500Z,1.31
2022-10-29T04:40:35.500Z,0.99
2022-10-29T04:43:02.397Z,0.84
2022-10-29T04:45:30.361Z,0.64
2022-10-29T04:48:00.509Z,1.12
2022-10-29T04:50:27.572Z,0.73
2022-10-29T04:52:58.722Z,1.24
2022-10-29T04:55:27.146Z,0.87
2022-10-29T04:57:54.462Z,0.82
2022-10-29T05:00:22.558Z,0.80
2022-10-29T05:02:50.067Z,0.88
2022-10-29T05:05:17.717Z,0.92
2022-10-29T05:07:47.176Z,1.13
2022-10-29T05:10:15.868Z,1.16
2022-10-29T05:12:42.966Z,0.76
2022-10-29T05:15:10.816Z,0.51
2022-10-29T05:17:38.472Z,0.52
2022-10-29T05:20:06.218Z,0.68
2022-10-29T05:22:33.206Z,0.50
2022-10-29T05:25:00.110Z,0.52
2022-10-29T05:27:28.369Z,0.46
2022-10-29T05:29:55.825Z,0.39
2022-10-29T05:32:22.948Z,0.35
2022-10-29T05:34:50.084Z,0.56
2022-10-29T05:37:17.286Z,0.53
2022-10-29T05:39:44.184Z,0.56
2022-10-29T05:42:11.109Z,0.92
2022-10-29T05:44:40.787Z,0.76
2022-10-29T05:47:08.997Z,0.59
2022-10-29T05:49:36.143Z,0.78
2022-10-29T05:52:03.364Z,0.95
2022-10-29T05:54:32.358Z,0.72
2022-10-29T05:56:59.300Z,0.66
2022-10-29T05:59:31.029Z,0.81
2022-10-29T06:02:02.842Z,0.69
2022-10-29T06:04:35.734Z,0.51
2022-10-29T06:07:03.943Z,0.46
2022-10-29T06:09:32.056Z,0.68
2022-10-29T06:11:59.019Z,0.66
2022-10-29T06:14:26.314Z,0.49
2022-10-29T06:16:53.354Z,1.24
2022-10-29T06:19:21.799Z,0.75
2022-10-29T06:21:48.936Z,0.68
2022-10-29T06:24:17.215Z,0.52
2022-10-29T06:26:44.406Z,0.38
2022-10-29T06:29:11.663Z,0.67
2022-10-29T06:31:40.529Z,0.56
2022-10-29T06:34:07.764Z,0.54
2022-10-29T06:36:36.330Z,0.49
2022-10-29T06:39:03.537Z,0.64
2022-10-29T06:41:30.257Z,0.67
2022-10-29T06:43:59.181Z,0.55
2022-10-29T06:46:26.186Z,0.58
2022-10-29T06:48:54.365Z,0.77
2022-10-29T06:53:58.631Z,1.12
2022-10-29T06:56:27.045Z,1.15
2022-10-29T06:58:54.957Z,0.80
2022-10-29T07:01:26.527Z,0.66
2022-10-29T07:06:24.167Z,0.49
2022-10-29T07:08:50.964Z,0.56
2022-10-29T07:11:22.405Z,0.78
2022-10-29T07:13:49.154Z,0.80
2022-10-29T07:16:15.915Z,0.71
2022-10-29T07:18:43.025Z,0.78
2022-10-29T07:21:11.918Z,0.60
2022-10-29T07:23:39.053Z,0.60
2022-10-29T07:26:07.509Z,0.46
2022-10-29T07:28:35.819Z,0.67
2022-10-29T07:31:03.561Z,0.60
2022-10-29T07:33:31.105Z,0.46
2022-10-29T07:35:59.626Z,0.48
2022-10-29T07:38:26.909Z,0.52
2022-10-29T07:40:54.116Z,0.49
2022-10-29T07:43:21.960Z,0.69
2022-10-29T07:45:56.489Z,0.80
2022-10-29T07:48:23.501Z,0.69
2022-10-29T07:50:50.579Z,0.57
2022-10-29T07:53:17.716Z,0.80
2022-10-29T07:55:45.878Z,0.97
2022-10-29T07:58:12.941Z,0.71
2022-10-29T08:00:41.205Z,0.63
2022-10-29T08:03:14.345Z,0.61
2022-10-29T08:05:44.033Z,0.48
2022-10-29T08:08:10.824Z,0.60
2022-10-29T08:10:39.187Z,0.57
2022-10-29T08:13:06.826Z,0.70
2022-10-29T08:15:34.861Z,0.66
2022-10-29T08:18:03.215Z,0.83
2022-10-29T08:20:32.129Z,0.68
2022-10-29T08:23:00.552Z,0.68
2022-10-29T08:25:29.667Z,0.50
2022-10-29T08:28:02.623Z,0.47
2022-10-29T08:30:32.219Z,0.39
2022-10-29T08:33:01.207Z,0.43
2022-10-29T08:35:28.808Z,0.65
2022-10-29T08:37:59.421Z,0.44
2022-10-29T08:40:29.961Z,0.74
2022-10-29T08:43:39.365Z,0.74
2022-10-29T08:46:19.455Z,0.53
2022-10-29T08:48:54.145Z,0.52
2022-10-29T08:51:25.754Z,0.96
2022-10-29T08:54:25.008Z,0.94
2022-10-29T08:56:47.285Z,0.65
2022-10-29T08:59:19.601Z,0.51
2022-10-29T09:01:47.914Z,0.41
2022-10-29T09:04:22.792Z,0.60
2022-10-29T09:07:05.799Z,0.59
2022-10-29T09:09:44.130Z,0.50
2022-10-29T09:12:33.831Z,0.40
2022-10-29T09:15:17.167Z,0.42
2022-10-29T09:17:56.121Z,0.43
2022-10-29T09:20:33.795Z,0.43
2022-10-29T09:23:07.394Z,0.74
2022-10-29T09:25:45.934Z,0.96
2022-10-29T09:28:26.161Z,0.82
2022-10-29T09:31:03.402Z,0.62
2022-10-29T09:33:31.939Z,0.52
2022-10-29T09:36:00.418Z,0.59
2022-10-29T09:38:32.237Z,0.70
2022-10-29T09:41:02.014Z,0.79
2022-10-29T09:43:38.042Z,0.82
2022-10-29T09:46:13.838Z,0.85
2022-10-29T09:48:51.451Z,0.69
2022-10-29T09:51:26.304Z,0.56
2022-10-29T09:53:55.059Z,0.52
2022-10-29T09:56:23.318Z,0.72
2022-10-29T09:58:55.490Z,0.83
2022-10-29T10:01:22.358Z,0.59
2022-10-29T10:03:59.022Z,0.56
2022-10-29T10:06:26.053Z,0.58
2022-10-29T10:09:03.695Z,0.63
2022-10-29T10:11:37.710Z,0.48
2022-10-29T10:14:13.605Z,0.48
2022-10-29T10:16:41.313Z,0.46
2022-10-29T10:19:22.769Z,0.76
2022-10-29T10:21:58.159Z,0.74
2022-10-29T10:24:34.321Z,0.55
2022-10-29T10:27:28.966Z,0.67
2022-10-29T10:30:11.904Z,0.67
2022-10-29T10:32:39.671Z,0.87
2022-10-29T10:35:29.639Z,0.71
2022-10-29T10:37:58.970Z,1.21
2022-10-29T10:40:27.088Z,0.78
2022-10-29T10:42:56.076Z,0.74
2022-10-29T10:45:28.503Z,0.55
2022-10-29T10:47:58.099Z,0.58
2022-10-29T10:50:28.719Z,0.82
2022-10-29T10:52:58.592Z,0.67
2022-10-29T10:55:31.295Z,0.60
2022-10-29T10:58:05.892Z,0.68
2022-10-29T11:00:38.955Z,0.69
2022-10-29T11:03:15.478Z,0.86
2022-10-29T11:05:49.965Z,0.87
2022-10-29T11:08:22.934Z,0.66
2022-10-29T11:10:56.760Z,0.51
2022-10-29T11:13:29.369Z,0.57
2022-10-29T11:16:05.591Z,0.54
2022-10-29T11:18:37.977Z,0.51
2022-10-29T11:21:11.574Z,0.50
2022-10-29T11:23:46.471Z,1.01
2022-10-29T11:26:25.780Z,0.86
2022-10-29T11:28:59.450Z,0.69
2022-10-29T11:31:32.441Z,0.55
2022-10-29T11:34:08.330Z,0.60
2022-10-29T11:36:41.455Z,0.51
2022-10-29T11:39:13.344Z,0.95
2022-10-29T11:41:46.860Z,0.79
2022-10-29T11:44:17.372Z,0.72
2022-10-29T11:46:59.534Z,0.56
2022-10-29T11:49:42.611Z,0.49
2022-10-29T11:52:13.963Z,0.60
2022-10-29T11:55:04.284Z,0.47
2022-10-29T11:57:41.392Z,0.75
2022-10-29T12:00:17.861Z,0.67
2022-10-29T12:03:07.664Z,0.59
2022-10-29T12:05:42.419Z,0.58
2022-10-29T12:08:25.885Z,0.62
2022-10-29T12:10:58.582Z,0.49
2022-10-29T12:13:43.280Z,0.53
2022-10-29T12:16:25.868Z,0.72
2022-10-29T12:19:06.080Z,0.63
2022-10-29T12:21:40.289Z,0.66
2022-10-29T12:24:21.617Z,0.63
2022-10-29T12:26:55.046Z,0.57
2022-10-29T12:29:27.685Z,0.54
2022-10-29T12:32:03.735Z,0.53
2022-10-29T12:34:37.013Z,0.45
2022-10-29T12:37:12.371Z,0.43
2022-10-29T12:39:44.732Z,0.64
2022-10-29T12:42:16.804Z,0.57
2022-10-29T12:44:50.785Z,1.16
2022-10-29T12:47:24.850Z,1.21
2022-10-29T12:50:05.218Z,1.25
2022-10-29T12:52:40.637Z,1.12
2022-10-29T12:55:12.930Z,1.02
2022-10-29T12:57:40.077Z,1.15
2022-10-29T13:00:32.299Z,0.85
2022-10-29T13:03:02.414Z,0.70
2022-10-29T13:05:39.082Z,0.70
2022-10-29T13:08:33.087Z,0.82
2022-10-29T13:11:22.295Z,0.58
2022-10-29T13:13:55.881Z,0.84
2022-10-29T13:16:30.688Z,0.63
2022-10-29T13:19:33.024Z,0.64
2022-10-29T13:22:21.248Z,0.53
2022-10-29T13:25:51.768Z,0.68
2022-10-29T13:29:01.220Z,0.69
2022-10-29T13:31:49.871Z,0.60
2022-10-29T13:34:56.331Z,0.55
2022-10-29T13:37:57.876Z,0.48
2022-10-29T13:40:56.581Z,0.49
2022-10-29T13:43:25.362Z,0.73
2022-10-29T13:46:02.686Z,1.08
2022-10-29T13:48:34.098Z,0.76
2022-10-29T13:51:06.764Z,0.65
2022-10-29T13:53:41.916Z,0.72
2022-10-29T13:56:13.641Z,0.64
2022-10-29T13:58:45.606Z,0.75
2022-10-29T14:01:17.247Z,0.56
2022-10-29T14:03:58.812Z,0.56
2022-10-29T14:06:33.016Z,0.70
2022-10-29T14:09:12.606Z,0.61
2022-10-29T14:11:43.106Z,0.60
2022-10-29T14:14:27.078Z,0.67
2022-10-29T14:17:09.702Z,0.79
2022-10-29T14:19:36.781Z,0.74
2022-10-29T14:22:21.183Z,0.62
2022-10-29T14:24:48.627Z,0.61
2022-10-29T14:27:23.819Z,0.55
2022-10-29T14:29:53.132Z,0.53
2022-10-29T14:32:23.201Z,0.55
2022-10-29T14:34:51.111Z,0.70
2022-10-29T14:37:28.464Z,0.94
2022-10-29T14:39:59.007Z,0.86
2022-10-29T14:42:31.275Z,0.76
2022-10-29T14:45:01.614Z,0.59
2022-10-29T14:47:33.979Z,0.58
2022-10-29T14:50:02.986Z,0.80
2022-10-29T14:52:34.689Z,0.87
2022-10-29T14:55:07.193Z,0.81
2022-10-29T14:57:41.397Z,0.83
2022-10-29T15:02:39.666Z,1.14
2022-10-29T15:05:23.397Z,0.91
2022-10-29T15:07:51.950Z,0.90
2022-10-29T15:10:22.225Z,0.93
2022-10-29T15:12:50.704Z,0.85
2022-10-29T15:15:29.369Z,0.65
2022-10-29T15:18:02.101Z,0.58
2022-10-29T15:20:37.007Z,0.58
2022-10-29T15:23:06.837Z,0.67
2022-10-29T15:25:40.835Z,0.66
2022-10-29T15:28:11.092Z,0.70
2022-10-29T15:30:41.814Z,0.84
2022-10-29T15:33:16.802Z,0.79
2022-10-29T15:35:49.740Z,0.84
2022-10-29T15:38:53.445Z,0.92
2022-10-29T15:41:36.933Z,1.02
2022-10-29T15:44:04.004Z,1.04
2022-10-29T15:46:38.285Z,1.03
2022-10-29T15:49:15.006Z,0.85
2022-10-29T15:51:42.123Z,0.75
2022-10-29T15:54:13.411Z,0.97
2022-10-29T15:56:43.608Z,0.75
2022-10-29T15:59:12.719Z,0.68
2022-10-29T16:01:40.085Z,0.88
2022-10-29T16:04:10.044Z,1.02
2022-10-29T16:06:37.474Z,0.85
2022-10-29T16:09:05.124Z,0.70
2022-10-29T16:11:34.917Z,0.56
2022-10-29T16:14:01.844Z,0.56
2022-10-29T16:16:31.365Z,0.66
2022-10-29T16:18:58.459Z,0.49
2022-10-29T16:21:26.482Z,0.50
2022-10-29T16:23:56.839Z,0.68
2022-10-29T16:26:25.217Z,0.76
2022-10-29T16:28:55.086Z,0.75
2022-10-29T16:31:24.349Z,0.81
2022-10-29T16:33:57.479Z,0.95
2022-10-29T16:36:24.799Z,0.89
2022-10-29T16:38:51.918Z,0.80
2022-10-29T16:41:20.543Z,0.71
2022-10-29T16:43:49.819Z,0.94
2022-10-29T16:46:18.442Z,1.01
2022-10-29T16:48:49.100Z,0.79
2022-10-29T16:51:19.127Z,0.74
2022-10-29T16:53:47.060Z,0.72
2022-10-29T16:56:13.809Z,0.62
2022-10-29T16:58:41.831Z,0.65
2022-10-29T17:01:09.535Z,0.63
2022-10-29T17:03:38.325Z,0.51
2022-10-29T17:06:07.455Z,0.46
2022-10-29T17:08:35.142Z,0.64
2022-10-29T17:11:03.422Z,0.99
2022-10-29T17:13:30.715Z,0.94
2022-10-29T17:15:57.732Z,0.85
2022-10-29T17:18:24.660Z,0.69
2022-10-29T17:20:57.486Z,0.87
2022-10-29T17:23:24.670Z,0.92
2022-10-29T17:25:52.519Z,0.78
2022-10-29T17:28:20.604Z,0.71
2022-10-29T17:30:47.751Z,1.24
2022-10-29T17:33:16.077Z,1.19
2022-10-29T17:35:43.507Z,1.13
2022-10-29T17:38:11.968Z,0.88
2022-10-29T17:40:39.225Z,0.84
2022-10-29T17:43:06.200Z,1.00
2022-10-29T17:45:33.033Z,1.30
2022-10-29T17:48:00.413Z,0.90
2022-10-29T17:50:28.020Z,0.92
2022-10-29T17:52:55.201Z,0.93
2022-10-29T17:55:23.750Z,1.40
2022-10-29T17:57:50.490Z,1.14
2022-10-29T18:00:17.826Z,0.75
2022-10-29T18:02:44.698Z,1.06
2022-10-29T18:05:12.656Z,0.77
2022-10-29T18:07:39.392Z,0.72
2022-10-29T18:10:07.443Z,0.69
2022-10-29T18:12:35.929Z,1.00
2022-10-29T18:15:03.793Z,0.92
2022-10-29T18:17:31.905Z,0.77
2022-10-29T18:19:58.815Z,0.78
2022-10-29T18:22:27.061Z,0.76
2022-10-29T18:24:54.952Z,0.82
2022-10-29T18:27:21.796Z,1.02
2022-10-29T18:29:55.494Z,0.76
2022-10-29T18:32:22.563Z,0.84
2022-10-29T18:34:51.392Z,0.61
2022-10-29T18:37:18.198Z,0.52
2022-10-29T18:39:45.094Z,0.51
2022-10-29T18:42:11.935Z,0.75
2022-10-29T18:44:38.700Z,1.25
2022-10-29T18:47:07.063Z,0.95
2022-10-29T18:49:34.865Z,0.78
2022-10-29T18:52:02.686Z,0.72
2022-10-29T18:54:29.495Z,0.77
2022-10-29T18:56:56.425Z,0.64
2022-10-29T18:59:23.237Z,0.72
2022-10-29T19:01:50.282Z,0.60
2022-10-29T19:04:18.828Z,0.69
2022-10-29T19:06:45.887Z,1.23
2022-10-29T19:09:12.716Z,1.06
2022-10-29T19:11:41.613Z,0.85
2022-10-29T19:14:12.373Z,1.00
2022-10-29T19:16:39.499Z,0.67
2022-10-29T19:19:08.407Z,0.67
2022-10-29T19:21:38.015Z,0.98
2022-10-29T19:24:06.031Z,0.86
2022-10-29T19:26:35.059Z,0.60
2022-10-29T19:29:03.333Z,0.59
2022-10-29T19:31:31.413Z,0.78
2022-10-29T19:34:01.317Z,0.56
2022-10-29T19:36:29.722Z,0.53
2022-10-29T19:38:58.937Z,0.88
2022-10-29T19:41:25.825Z,0.75
2022-10-29T19:43:53.794Z,0.72
2022-10-29T19:46:21.764Z,0.62
2022-10-29T19:48:50.353Z,0.87
2022-10-29T19:51:17.450Z,0.97
2022-10-29T19:53:44.407Z,0.78
2022-10-29T19:56:14.732Z,0.81
2022-10-29T19:58:42.260Z,0.67
2022-10-29T20:01:13.031Z,0.61
2022-10-29T20:03:39.904Z,0.51
2022-10-29T20:06:07.346Z,0.45
2022-10-29T20:08:34.138Z,0.59
2022-10-29T20:11:02.181Z,0.55
2022-10-29T20:13:30.496Z,0.55
2022-10-29T20:15:59.723Z,0.63
2022-10-29T20:18:26.591Z,0.57
2022-10-29T20:20:54.821Z,0.54
2022-10-29T20:23:21.755Z,0.72
2022-10-29T20:25:48.625Z,1.26
2022-10-29T20:28:15.383Z,1.22
2022-10-29T20:30:46.957Z,0.83
2022-10-29T20:33:13.741Z,0.87
2022-10-29T20:35:40.793Z,0.88
2022-10-29T20:38:07.555Z,1.11
2022-10-29T20:40:36.436Z,2.12
2022-10-29T20:43:03.265Z,1.44
2022-10-29T20:45:30.216Z,0.99
2022-10-29T20:48:01.632Z,0.71
2022-10-29T20:50:28.522Z,0.57
2022-10-29T20:52:55.710Z,0.67
2022-10-29T20:55:22.581Z,0.60
2022-10-29T20:57:49.547Z,0.65
2022-10-29T21:00:16.619Z,0.68
2022-10-29T21:02:43.874Z,0.66
2022-10-29T21:05:12.160Z,0.49
2022-10-29T21:07:39.466Z,0.50
2022-10-29T21:10:07.710Z,0.43
2022-10-29T21:12:35.701Z,0.48
2022-10-29T21:15:02.449Z,0.40
2022-10-29T21:17:30.412Z,0.46
2022-10-29T21:19:57.166Z,0.51
2022-10-29T21:22:25.563Z,0.41
2022-10-29T21:24:52.283Z,1.08
2022-10-29T21:27:19.390Z,0.83
2022-10-29T21:29:46.117Z,0.90
2022-10-29T21:32:16.744Z,0.65
2022-10-29T21:34:43.905Z,0.78
2022-10-29T21:37:10.865Z,0.79
2022-10-29T21:39:39.997Z,0.61
2022-10-29T21:42:06.724Z,0.58
2022-10-29T21:44:33.666Z,0.69
2022-10-29T21:47:00.425Z,0.58
2022-10-29T21:49:27.373Z,0.70
2022-10-29T21:51:54.125Z,0.51
2022-10-29T21:54:23.087Z,0.72
2022-10-29T21:56:53.908Z,0.55
2022-10-29T21:59:21.865Z,0.53
2022-10-29T22:01:48.700Z,0.55
2022-10-29T22:04:15.776Z,0.48
2022-10-29T22:06:42.627Z,0.67
2022-10-29T22:09:10.453Z,0.61
2022-10-29T22:11:37.274Z,0.61
2022-10-29T22:14:05.478Z,0.56
2022-10-29T22:16:32.222Z,0.44
2022-10-29T22:18:59.253Z,0.51
2022-10-29T22:21:26.549Z,0.79
2022-10-29T22:23:56.223Z,0.82
2022-10-29T22:26:25.146Z,0.60
2022-10-29T22:28:53.542Z,0.50
2022-10-29T22:31:23.658Z,0.66
2022-10-29T22:33:51.111Z,0.60
2022-10-29T22:36:20.158Z,0.52
2022-10-29T22:38:47.166Z,0.95
2022-10-29T22:41:16.449Z,0.64
2022-10-29T22:43:43.885Z,0.90
2022-10-29T22:46:13.099Z,1.31
2022-10-29T22:48:41.426Z,1.07
2022-10-29T22:51:12.892Z,0.95
2022-10-29T22:53:39.626Z,0.69
2022-10-29T22:56:07.097Z,0.60
2022-10-29T22:58:33.862Z,0.46
2022-10-29T23:01:02.291Z,0.62
2022-10-29T23:03:29.228Z,0.86
2022-10-29T23:05:58.081Z,0.87
2022-10-29T23:08:24.948Z,1.20
2022-10-29T23:10:53.973Z,1.07
2022-10-29T23:13:21.019Z,0.96
2022-10-29T23:15:48.267Z,1.15
2022-10-29T23:18:15.453Z,1.04
2022-10-29T23:20:43.572Z,0.91
2022-10-29T23:23:12.539Z,1.17
2022-10-29T23:25:40.519Z,0.98
2022-10-29T23:28:08.297Z,1.00
2022-10-29T23:30:35.315Z,0.94
2022-10-29T23:33:03.408Z,0.64
2022-10-29T23:35:30.211Z,0.67
2022-10-29T23:37:57.296Z,0.72
2022-10-29T23:40:25.794Z,0.69
2022-10-29T23:42:54.591Z,1.27
2022-10-29T23:45:21.308Z,1.08
2022-10-29T23:47:48.261Z,0.87
2022-10-29T23:50:15.448Z,0.86
2022-10-29T23:52:42.433Z,0.73
2022-10-29T23:55:09.663Z,0.62
2022-10-29T23:57:39.509Z,0.65
